createdAt,value
2023-02-02T00:02:06.589Z,0.73
2023-02-02T00:04:34.380Z,0.47
2023-02-02T00:07:03.834Z,0.88
2023-02-02T00:09:31.039Z,0.40
2023-02-02T00:11:58.062Z,0.50
2023-02-02T00:14:25.056Z,0.40
2023-02-02T00:16:56.057Z,0.50
2023-02-02T00:19:26.335Z,0.55
2023-02-02T00:21:53.553Z,0.45
2023-02-02T00:24:20.094Z,0.63
2023-02-02T00:26:47.633Z,0.40
2023-02-02T00:29:17.435Z,0.45
2023-02-02T00:31:45.143Z,0.68
2023-02-02T00:34:12.619Z,0.80
2023-02-02T00:36:39.395Z,0.75
2023-02-02T00:39:06.195Z,0.50
2023-02-02T00:41:34.624Z,0.50
2023-02-02T00:44:19.547Z,0.65
2023-02-02T00:46:45.938Z,0.50
2023-02-02T00:49:12.535Z,0.60
2023-02-02T00:51:40.345Z,0.47
2023-02-02T00:54:19.846Z,0.70
2023-02-02T00:56:46.266Z,0.43
2023-02-02T00:59:12.698Z,0.57
2023-02-02T01:01:39.190Z,0.57
2023-02-02T01:04:07.982Z,0.57
2023-02-02T01:06:34.399Z,0.52
2023-02-02T01:09:00.797Z,0.50
2023-02-02T01:11:27.242Z,0.90
2023-02-02T01:13:53.842Z,0.70
2023-02-02T01:16:26.120Z,0.55
2023-02-02T01:18:53.006Z,0.70
2023-02-02T01:21:19.730Z,0.55
2023-02-02T01:23:46.123Z,0.50
2023-02-02T01:26:13.417Z,0.60
2023-02-02T01:28:40.295Z,0.43
2023-02-02T01:31:14.379Z,0.57
2023-02-02T01:33:41.602Z,0.45
2023-02-02T01:36:10.317Z,0.40
2023-02-02T01:38:37.157Z,0.40
2023-02-02T01:41:07.217Z,0.60
2023-02-02T01:43:46.001Z,0.50
2023-02-02T01:46:13.564Z,0.50
2023-02-02T01:48:41.803Z,0.47
2023-02-02T01:51:09.854Z,0.57
2023-02-02T01:53:36.300Z,0.45
2023-02-02T01:56:04.360Z,0.50
2023-02-02T01:58:33.572Z,0.50
2023-02-02T02:01:00.009Z,0.80
2023-02-02T02:03:27.601Z,0.45
2023-02-02T02:05:56.139Z,0.70
2023-02-02T02:08:37.757Z,0.60
2023-02-02T02:11:04.391Z,0.35
2023-02-02T02:13:50.098Z,0.52
2023-02-02T02:16:43.816Z,0.50
2023-02-02T02:19:23.756Z,0.40
2023-02-02T02:22:08.725Z,0.57
2023-02-02T02:25:12.919Z,0.63
2023-02-02T02:27:39.295Z,0.50
2023-02-02T02:30:05.700Z,0.70
2023-02-02T02:32:52.814Z,0.63
2023-02-02T02:35:35.509Z,0.60
2023-02-02T02:38:10.392Z,0.70
2023-02-02T02:40:46.340Z,0.50
2023-02-02T02:43:20.621Z,0.50
2023-02-02T02:45:47.169Z,0.30
2023-02-02T02:48:13.619Z,0.52
2023-02-02T02:50:40.234Z,0.52
2023-02-02T02:53:13.077Z,0.57
2023-02-02T02:56:00.399Z,0.63
2023-02-02T02:58:29.969Z,0.70
2023-02-02T03:01:02.965Z,0.70
2023-02-02T03:03:29.400Z,0.68
2023-02-02T03:06:16.129Z,0.32
2023-02-02T03:09:04.215Z,0.45
2023-02-02T03:11:31.067Z,0.68
2023-02-02T03:13:59.800Z,0.50
2023-02-02T03:16:26.221Z,0.60
2023-02-02T03:18:52.767Z,0.60
2023-02-02T03:21:19.251Z,0.50
2023-02-02T03:23:45.744Z,0.60
2023-02-02T03:26:12.378Z,0.47
2023-02-02T03:28:38.917Z,0.52
2023-02-02T03:31:09.914Z,0.60
2023-02-02T03:33:36.973Z,0.60
2023-02-02T03:36:03.554Z,0.40
2023-02-02T03:38:29.991Z,0.75
2023-02-02T03:40:57.580Z,0.60
2023-02-02T03:43:24.312Z,0.73
2023-02-02T03:45:57.610Z,0.50
2023-02-02T03:48:24.098Z,0.70
2023-02-02T03:50:50.681Z,0.50
2023-02-02T03:53:17.126Z,0.90
2023-02-02T03:55:45.912Z,0.60
2023-02-02T03:58:12.309Z,0.98
2023-02-02T04:00:38.859Z,0.70
2023-02-02T04:03:05.290Z,0.85
2023-02-02T04:05:31.804Z,0.60
2023-02-02T04:07:58.367Z,0.57
2023-02-02T04:10:24.874Z,0.68
2023-02-02T04:12:51.257Z,0.70
2023-02-02T04:15:17.740Z,0.70
2023-02-02T04:17:46.479Z,0.80
2023-02-02T04:20:12.903Z,0.80
2023-02-02T04:22:39.378Z,0.50
2023-02-02T04:25:05.947Z,0.73
2023-02-02T04:27:34.101Z,0.60
2023-02-02T04:30:00.645Z,0.60
2023-02-02T04:32:27.132Z,0.63
2023-02-02T04:34:53.711Z,0.60
2023-02-02T04:37:20.125Z,0.63
2023-02-02T04:39:46.590Z,0.45
2023-02-02T04:42:13.002Z,0.77
2023-02-02T04:44:39.920Z,0.50
2023-02-02T04:47:06.375Z,0.70
2023-02-02T04:49:32.846Z,0.80
2023-02-02T04:51:59.264Z,0.80
2023-02-02T04:54:25.679Z,0.73
2023-02-02T04:56:52.048Z,0.47
2023-02-02T04:59:18.475Z,0.85
2023-02-02T05:01:44.958Z,0.80
2023-02-02T05:04:12.022Z,0.60
2023-02-02T05:06:38.606Z,0.70
2023-02-02T05:09:04.999Z,0.68
2023-02-02T05:11:31.429Z,0.60
2023-02-02T05:13:57.906Z,0.63
2023-02-02T05:16:28.908Z,0.60
2023-02-02T05:18:56.928Z,0.65
2023-02-02T05:21:23.921Z,0.82
2023-02-02T05:23:50.443Z,0.70
2023-02-02T05:26:19.742Z,0.80
2023-02-02T05:28:46.403Z,0.60
2023-02-02T05:31:13.003Z,0.40
2023-02-02T05:33:39.668Z,0.77
2023-02-02T05:36:06.861Z,0.80
2023-02-02T05:38:33.285Z,0.57
2023-02-02T05:41:02.519Z,0.85
2023-02-02T05:43:29.949Z,0.50
2023-02-02T05:45:56.578Z,0.73
2023-02-02T05:48:23.082Z,0.70
2023-02-02T05:51:15.576Z,0.90
2023-02-02T05:53:42.040Z,0.77
2023-02-02T05:56:08.556Z,0.77
2023-02-02T05:58:34.999Z,0.85
2023-02-02T06:01:01.577Z,0.80
2023-02-02T06:03:28.157Z,0.93
2023-02-02T06:05:54.595Z,0.90
2023-02-02T06:08:21.013Z,0.80
2023-02-02T06:10:47.513Z,0.70
2023-02-02T06:13:13.988Z,0.55
2023-02-02T06:15:43.165Z,0.80
2023-02-02T06:18:09.913Z,0.52
2023-02-02T06:20:36.360Z,0.65
2023-02-02T06:23:02.988Z,0.93
2023-02-02T06:25:30.613Z,0.90
2023-02-02T06:27:57.635Z,1.00
2023-02-02T06:30:24.370Z,0.57
2023-02-02T06:32:51.164Z,0.63
2023-02-02T06:35:18.832Z,0.88
2023-02-02T06:37:45.270Z,0.63
2023-02-02T06:40:12.535Z,0.80
2023-02-02T06:42:38.999Z,0.70
2023-02-02T06:45:05.637Z,0.90
2023-02-02T06:47:32.933Z,0.90
2023-02-02T06:49:59.315Z,0.57
2023-02-02T06:52:25.760Z,0.73
2023-02-02T06:54:52.228Z,0.65
2023-02-02T06:57:18.625Z,0.70
2023-02-02T06:59:45.168Z,0.55
2023-02-02T07:02:11.937Z,0.40
2023-02-02T07:04:40.092Z,0.50
2023-02-02T07:07:06.493Z,0.60
2023-02-02T07:09:33.857Z,0.50
2023-02-02T07:12:00.232Z,0.88
2023-02-02T07:14:27.244Z,0.60
2023-02-02T07:16:53.825Z,0.50
2023-02-02T07:19:20.290Z,0.70
2023-02-02T07:21:46.740Z,0.60
2023-02-02T07:24:13.139Z,0.50
2023-02-02T07:26:40.677Z,0.30
2023-02-02T07:29:07.333Z,0.50
2023-02-02T07:31:36.365Z,0.52
2023-02-02T07:34:05.413Z,0.40
2023-02-02T07:36:32.071Z,0.50
2023-02-02T07:39:01.009Z,0.40
2023-02-02T07:41:28.028Z,0.50
2023-02-02T07:43:54.437Z,0.57
2023-02-02T07:46:23.798Z,0.70
2023-02-02T07:48:53.054Z,0.30
2023-02-02T07:51:20.872Z,0.40
2023-02-02T07:53:50.163Z,0.55
2023-02-02T07:56:20.617Z,0.60
2023-02-02T07:58:47.310Z,0.43
2023-02-02T08:01:14.865Z,0.40
2023-02-02T08:03:42.971Z,0.60
2023-02-02T08:06:17.477Z,0.45
2023-02-02T08:08:43.896Z,0.55
2023-02-02T08:11:14.080Z,0.50
2023-02-02T08:13:43.311Z,0.50
2023-02-02T08:16:12.459Z,0.60
2023-02-02T08:18:40.118Z,0.40
2023-02-02T08:21:08.955Z,0.40
2023-02-02T08:23:36.665Z,0.50
2023-02-02T08:26:13.681Z,0.40
2023-02-02T08:28:41.076Z,0.40
2023-02-02T08:31:09.106Z,0.30
2023-02-02T08:33:36.225Z,0.60
2023-02-02T08:36:03.147Z,0.45
2023-02-02T08:38:29.595Z,0.80
2023-02-02T08:40:56.082Z,0.40
2023-02-02T08:43:22.517Z,0.38
2023-02-02T08:46:12.729Z,0.50
2023-02-02T08:48:37.275Z,0.30
2023-02-02T08:51:04.481Z,0.57
2023-02-02T08:53:31.250Z,0.40
2023-02-02T08:56:01.568Z,0.30
2023-02-02T08:58:28.624Z,0.60
2023-02-02T09:00:57.314Z,0.30
2023-02-02T09:03:23.750Z,0.43
2023-02-02T09:05:50.273Z,0.30
2023-02-02T09:08:16.756Z,0.40
2023-02-02T09:10:43.381Z,0.40
2023-02-02T09:13:09.824Z,0.50
2023-02-02T09:15:39.951Z,0.47
2023-02-02T09:18:08.750Z,0.30
2023-02-02T09:20:35.350Z,0.60
2023-02-02T09:23:01.740Z,0.52
2023-02-02T09:25:28.431Z,0.30
2023-02-02T09:27:54.896Z,0.57
2023-02-02T09:30:21.514Z,0.52
2023-02-02T09:32:53.440Z,0.40
2023-02-02T09:35:19.871Z,0.28
2023-02-02T09:37:46.278Z,0.40
2023-02-02T09:40:20.295Z,0.40
2023-02-02T09:43:02.887Z,0.30
2023-02-02T09:47:57.478Z,0.52
2023-02-02T09:50:26.663Z,0.50
2023-02-02T09:53:19.538Z,0.40
2023-02-02T09:55:51.507Z,0.40
2023-02-02T09:58:31.254Z,0.30
2023-02-02T10:01:08.575Z,0.50
2023-02-02T10:03:46.045Z,0.40
2023-02-02T10:06:28.442Z,0.70
2023-02-02T10:09:01.894Z,0.40
2023-02-02T10:11:41.477Z,0.45
2023-02-02T10:14:16.086Z,0.40
2023-02-02T10:16:43.257Z,0.30
2023-02-02T10:19:11.441Z,0.47
2023-02-02T10:21:48.555Z,0.40
2023-02-02T10:24:18.974Z,0.50
2023-02-02T10:27:01.252Z,0.50
2023-02-02T10:29:49.177Z,0.40
2023-02-02T10:32:23.244Z,0.60
2023-02-02T10:35:13.051Z,0.55
2023-02-02T10:37:45.852Z,0.40
2023-02-02T10:40:17.819Z,0.30
2023-02-02T10:43:22.057Z,0.40
2023-02-02T10:45:50.196Z,0.50
2023-02-02T10:48:20.196Z,0.50
2023-02-02T10:50:58.052Z,0.60
2023-02-02T10:53:27.888Z,0.77
2023-02-02T10:56:00.111Z,0.55
2023-02-02T10:58:29.197Z,0.40
2023-02-02T11:00:57.982Z,0.40
2023-02-02T11:03:28.587Z,0.60
2023-02-02T11:06:15.290Z,0.40
2023-02-02T11:08:49.296Z,0.60
2023-02-02T11:11:21.773Z,0.40
2023-02-02T11:13:54.474Z,0.57
2023-02-02T11:16:21.079Z,0.40
2023-02-02T11:18:48.218Z,0.30
2023-02-02T11:21:27.001Z,0.50
2023-02-02T11:23:53.490Z,0.50
2023-02-02T11:26:20.003Z,0.30
2023-02-02T11:28:48.870Z,0.40
2023-02-02T11:31:41.835Z,0.60
2023-02-02T11:34:29.376Z,0.50
2023-02-02T11:37:15.383Z,0.60
2023-02-02T11:39:42.743Z,0.40
2023-02-02T11:42:16.170Z,0.32
2023-02-02T11:44:50.824Z,0.47
2023-02-02T11:47:22.107Z,0.40
2023-02-02T11:49:49.738Z,0.60
2023-02-02T11:52:18.089Z,0.52
2023-02-02T11:54:49.183Z,0.50
2023-02-02T11:57:22.317Z,0.60
2023-02-02T11:59:50.126Z,0.50
2023-02-02T12:02:22.477Z,0.55
2023-02-02T12:04:51.953Z,0.65
2023-02-02T12:07:29.170Z,0.50
2023-02-02T12:10:04.637Z,0.65
2023-02-02T12:12:32.210Z,0.47
2023-02-02T12:15:04.521Z,0.47
2023-02-02T12:17:44.203Z,0.50
2023-02-02T12:20:10.610Z,0.60
2023-02-02T12:22:51.595Z,0.57
2023-02-02T12:25:29.094Z,0.50
2023-02-02T12:28:11.637Z,0.50
2023-02-02T12:33:29.862Z,0.63
2023-02-02T12:36:11.552Z,0.30
2023-02-02T12:38:40.828Z,0.67
2023-02-02T12:41:32.735Z,0.40
2023-02-02T12:44:10.745Z,0.50
2023-02-02T12:46:48.461Z,0.40
2023-02-02T12:49:17.692Z,0.40
2023-02-02T12:52:02.736Z,0.50
2023-02-02T12:54:45.527Z,0.30
2023-02-02T12:57:20.554Z,0.50
2023-02-02T12:59:49.942Z,0.47
2023-02-02T13:02:16.557Z,0.50
2023-02-02T13:07:46.349Z,0.60
2023-02-02T13:12:46.636Z,0.57
2023-02-02T13:15:19.168Z,0.50
2023-02-02T13:17:56.348Z,0.70
2023-02-02T13:20:25.804Z,0.60
2023-02-02T13:22:56.541Z,0.57
2023-02-02T13:25:35.721Z,0.70
2023-02-02T13:28:04.633Z,0.60
2023-02-02T13:30:32.558Z,0.60
2023-02-02T13:33:01.044Z,0.68
2023-02-02T13:35:51.858Z,0.60
2023-02-02T13:38:25.568Z,0.65
2023-02-02T13:40:55.442Z,0.50
2023-02-02T13:43:29.601Z,0.70
2023-02-02T13:46:07.103Z,0.52
2023-02-02T13:48:52.514Z,0.40
2023-02-02T13:51:21.986Z,0.40
2023-02-02T13:53:54.685Z,0.60
2023-02-02T13:56:34.460Z,0.60
2023-02-02T13:59:07.095Z,0.47
2023-02-02T14:01:33.707Z,0.40
2023-02-02T14:04:00.593Z,0.77
2023-02-02T14:06:30.117Z,0.50
2023-02-02T14:09:04.654Z,0.60
2023-02-02T14:11:32.754Z,0.50
2023-02-02T14:14:38.116Z,0.70
2023-02-02T14:17:13.654Z,0.68
2023-02-02T14:19:42.118Z,0.50
2023-02-02T14:22:14.722Z,0.57
2023-02-02T14:27:07.642Z,0.40
2023-02-02T14:29:36.935Z,0.60
2023-02-02T14:32:03.408Z,0.45
2023-02-02T14:34:36.775Z,0.40
2023-02-02T14:37:03.142Z,0.50
2023-02-02T14:39:34.134Z,0.52
2023-02-02T14:42:26.315Z,0.50
2023-02-02T14:45:07.922Z,0.50
2023-02-02T14:47:53.718Z,0.47
2023-02-02T14:50:25.188Z,0.65
2023-02-02T14:52:58.570Z,0.60
2023-02-02T14:55:27.914Z,0.50
2023-02-02T14:58:02.274Z,0.50
2023-02-02T15:00:32.866Z,0.60
2023-02-02T15:03:17.791Z,0.63
2023-02-02T15:05:46.234Z,0.63
2023-02-02T15:08:26.325Z,0.52
2023-02-02T15:10:57.432Z,0.60
2023-02-02T15:13:28.601Z,0.50
2023-02-02T15:16:18.877Z,0.57
2023-02-02T15:18:46.864Z,0.55
2023-02-02T15:21:15.322Z,0.60
2023-02-02T15:23:43.607Z,0.63
2023-02-02T15:26:15.857Z,0.60
2023-02-02T15:28:48.823Z,0.55
2023-02-02T15:31:22.903Z,0.73
2023-02-02T15:33:53.983Z,0.47
2023-02-02T15:36:28.623Z,0.75
2023-02-02T15:38:58.529Z,0.75
2023-02-02T15:41:38.506Z,0.55
2023-02-02T15:44:21.776Z,0.75
2023-02-02T15:46:48.820Z,0.70
2023-02-02T15:49:34.170Z,0.70
2023-02-02T15:52:11.708Z,0.73
2023-02-02T15:54:38.294Z,0.80
2023-02-02T15:57:21.120Z,0.70
2023-02-02T15:59:49.347Z,0.63
2023-02-02T16:02:18.688Z,0.70
2023-02-02T16:04:45.283Z,0.80
2023-02-02T16:07:17.057Z,0.70
2023-02-02T16:09:44.041Z,0.57
2023-02-02T16:12:20.256Z,0.63
2023-02-02T16:14:49.111Z,0.63
2023-02-02T16:17:20.821Z,0.70
2023-02-02T16:19:49.028Z,0.90
2023-02-02T16:22:17.003Z,0.80
2023-02-02T16:24:46.714Z,0.85
2023-02-02T16:27:17.446Z,0.88
2023-02-02T16:29:47.143Z,0.60
2023-02-02T16:32:25.560Z,0.95
2023-02-02T16:34:51.968Z,0.60
2023-02-02T16:37:23.330Z,0.93
2023-02-02T16:39:49.749Z,1.05
2023-02-02T16:42:25.611Z,0.70
2023-02-02T16:44:52.385Z,1.33
2023-02-02T16:47:24.963Z,0.85
2023-02-02T16:50:17.032Z,1.00
2023-02-02T16:52:52.745Z,0.80
2023-02-02T16:55:19.892Z,0.63
2023-02-02T16:57:47.410Z,0.80
2023-02-02T17:00:21.383Z,0.80
2023-02-02T17:02:49.663Z,0.80
2023-02-02T17:05:21.163Z,0.70
2023-02-02T17:07:49.366Z,0.60
2023-02-02T17:10:27.764Z,0.77
2023-02-02T17:12:54.200Z,0.80
2023-02-02T17:15:20.589Z,0.70
2023-02-02T17:17:48.546Z,0.98
2023-02-02T17:20:15.877Z,0.70
2023-02-02T17:22:43.922Z,0.80
2023-02-02T17:25:14.731Z,0.80
2023-02-02T17:27:41.159Z,0.90
2023-02-02T17:30:08.026Z,0.75
2023-02-02T17:32:34.385Z,0.82
2023-02-02T17:35:02.521Z,0.90
2023-02-02T17:37:28.924Z,0.93
2023-02-02T17:39:55.437Z,0.73
2023-02-02T17:42:26.314Z,0.80
2023-02-02T17:44:53.889Z,0.90
2023-02-02T17:47:20.351Z,0.70
2023-02-02T17:49:46.761Z,0.88
2023-02-02T17:52:15.725Z,0.80
2023-02-02T17:54:42.189Z,0.80
2023-02-02T17:57:08.640Z,0.93
2023-02-02T17:59:35.063Z,0.90
2023-02-02T18:02:01.604Z,0.90
2023-02-02T18:04:28.293Z,0.82
2023-02-02T18:06:56.574Z,1.00
2023-02-02T18:09:23.017Z,1.02
2023-02-02T18:11:51.913Z,0.80
2023-02-02T18:14:18.342Z,0.88
2023-02-02T18:16:44.763Z,1.02
2023-02-02T18:19:11.246Z,0.85
2023-02-02T18:21:37.721Z,0.90
2023-02-02T18:24:04.360Z,0.80
2023-02-02T18:26:32.616Z,1.00
2023-02-02T18:29:01.728Z,0.88
2023-02-02T18:31:28.252Z,0.77
2023-02-02T18:33:56.930Z,1.08
2023-02-02T18:36:25.090Z,0.90
2023-02-02T18:38:56.357Z,0.88
2023-02-02T18:41:22.943Z,1.20
2023-02-02T18:43:49.835Z,1.25
2023-02-02T18:46:16.857Z,1.10
2023-02-02T18:48:43.454Z,0.85
2023-02-02T18:51:18.031Z,0.93
2023-02-02T18:53:45.533Z,1.27
2023-02-02T18:56:12.937Z,1.13
2023-02-02T18:58:40.534Z,1.25
2023-02-02T19:01:11.486Z,1.38
2023-02-02T19:03:38.080Z,1.38
2023-02-02T19:06:23.263Z,0.90
2023-02-02T19:08:51.598Z,1.08
2023-02-02T19:11:21.416Z,1.05
2023-02-02T19:13:48.200Z,1.08
2023-02-02T19:16:34.604Z,1.20
2023-02-02T19:19:20.273Z,0.98
2023-02-02T19:21:46.762Z,1.10
2023-02-02T19:24:13.518Z,0.90
2023-02-02T19:26:49.708Z,0.90
2023-02-02T19:29:36.081Z,0.80
2023-02-02T19:32:07.538Z,0.90
2023-02-02T19:34:34.024Z,0.70
2023-02-02T19:37:17.400Z,1.02
2023-02-02T19:39:44.701Z,1.10
2023-02-02T19:42:11.502Z,0.77
2023-02-02T19:44:40.564Z,0.77
2023-02-02T19:47:33.443Z,0.90
2023-02-02T19:50:12.164Z,0.82
2023-02-02T19:52:39.032Z,0.68
2023-02-02T19:55:17.339Z,0.90
2023-02-02T19:57:43.764Z,0.88
2023-02-02T20:00:21.296Z,1.00
2023-02-02T20:02:50.564Z,1.00
2023-02-02T20:05:18.934Z,1.00
2023-02-02T20:07:45.775Z,1.10
2023-02-02T20:10:17.544Z,1.25
2023-02-02T20:12:44.146Z,1.10
2023-02-02T20:15:37.053Z,1.20
2023-02-02T20:18:04.916Z,1.10
2023-02-02T20:20:43.161Z,1.30
2023-02-02T20:23:24.526Z,0.98
2023-02-02T20:25:51.071Z,1.10
2023-02-02T20:28:47.510Z,1.60
2023-02-02T20:31:22.181Z,1.20
2023-02-02T20:33:51.074Z,1.38
2023-02-02T20:36:26.752Z,1.40
2023-02-02T20:38:54.372Z,1.35
2023-02-02T20:41:20.744Z,1.52
2023-02-02T20:43:47.132Z,1.40
2023-02-02T20:46:13.747Z,1.35
2023-02-02T20:48:47.510Z,1.13
2023-02-02T20:51:15.796Z,1.25
2023-02-02T20:53:42.594Z,1.20
2023-02-02T20:56:09.042Z,1.52
2023-02-02T20:58:38.550Z,1.20
2023-02-02T21:01:06.134Z,1.63
2023-02-02T21:03:32.898Z,1.38
2023-02-02T21:05:59.988Z,1.40
2023-02-02T21:08:26.480Z,1.40
2023-02-02T21:10:52.863Z,1.15
2023-02-02T21:13:19.336Z,1.70
2023-02-02T21:15:50.798Z,1.05
2023-02-02T21:18:17.181Z,1.27
2023-02-02T21:20:45.506Z,1.50
2023-02-02T21:23:12.023Z,1.27
2023-02-02T21:25:38.400Z,1.55
2023-02-02T21:28:04.832Z,1.10
2023-02-02T21:30:31.908Z,1.90
2023-02-02T21:32:58.709Z,1.30
2023-02-02T21:35:29.135Z,1.20
2023-02-02T21:37:56.903Z,1.05
2023-02-02T21:40:27.890Z,1.20
2023-02-02T21:42:54.433Z,1.20
2023-02-02T21:45:20.834Z,1.27
2023-02-02T21:47:51.594Z,1.13
2023-02-02T21:50:25.905Z,1.40
2023-02-02T21:52:53.760Z,1.33
2023-02-02T21:55:26.873Z,1.40
2023-02-02T21:57:53.270Z,1.38
2023-02-02T22:00:19.711Z,1.50
2023-02-02T22:02:48.250Z,1.55
2023-02-02T22:05:18.808Z,1.67
2023-02-02T22:07:47.051Z,1.33
2023-02-02T22:10:25.568Z,1.52
2023-02-02T22:12:52.345Z,1.50
2023-02-02T22:15:21.591Z,1.88
2023-02-02T22:17:48.276Z,1.52
2023-02-02T22:20:14.753Z,1.35
2023-02-02T22:22:51.353Z,1.50
2023-02-02T22:25:17.896Z,1.58
2023-02-02T22:27:48.522Z,1.70
2023-02-02T22:30:23.164Z,1.50
2023-02-02T22:32:49.797Z,1.92
2023-02-02T22:35:18.519Z,2.00
2023-02-02T22:37:45.164Z,1.73
2023-02-02T22:40:11.993Z,1.50
2023-02-02T22:42:38.465Z,1.83
2023-02-02T22:45:05.064Z,2.00
2023-02-02T22:47:31.563Z,2.10
2023-02-02T22:49:57.991Z,2.30
2023-02-02T22:52:26.663Z,2.00
2023-02-02T22:54:55.401Z,2.45
2023-02-02T22:57:21.821Z,2.20
2023-02-02T22:59:48.204Z,2.20
2023-02-02T23:02:14.634Z,2.03
2023-02-02T23:04:41.127Z,2.33
2023-02-02T23:07:07.580Z,2.40
2023-02-02T23:09:34.049Z,2.47
2023-02-02T23:12:00.401Z,2.47
2023-02-02T23:14:26.760Z,2.47
2023-02-02T23:16:53.118Z,2.65
2023-02-02T23:19:19.493Z,2.80
2023-02-02T23:21:46.080Z,2.33
2023-02-02T23:24:12.534Z,2.72
2023-02-02T23:26:38.928Z,2.17
2023-02-02T23:29:05.351Z,2.92
2023-02-02T23:31:31.835Z,3.30
2023-02-02T23:33:58.377Z,2.70
2023-02-02T23:36:24.790Z,3.33
2023-02-02T23:38:51.149Z,2.75
2023-02-02T23:41:19.037Z,3.05
2023-02-02T23:43:45.463Z,3.25
2023-02-02T23:46:11.875Z,3.00
2023-02-02T23:48:38.307Z,2.95
2023-02-02T23:51:04.745Z,2.95
2023-02-02T23:53:31.148Z,2.88
2023-02-02T23:55:57.573Z,3.45
2023-02-02T23:58:24.010Z,3.10
